createdAt,value
2017-08-07T04:08:06.049Z,0
2017-08-07T04:08:46.640Z,0
2017-08-07T04:09:27.208Z,4
2017-08-07T04:10:07.772Z,4
2017-08-07T04:10:48.359Z,0
2017-08-07T04:11:28.947Z,0
2017-08-07T04:12:09.530Z,0
2017-08-07T04:12:50.117Z,0
2017-08-07T04:13:30.695Z,0
2017-08-07T04:14:11.272Z,4
2017-08-07T04:14:51.857Z,4
2017-08-07T04:15:32.439Z,4
2017-08-07T04:16:13.019Z,4
2017-08-07T04:16:53.601Z,4
2017-08-07T04:17:34.191Z,4
2017-08-07T04:18:14.774Z,4
2017-08-07T04:18:55.345Z,4
2017-08-07T04:19:35.924Z,4
2017-08-07T04:20:16.508Z,4
2017-08-07T04:20:57.066Z,4
2017-08-07T04:21:37.654Z,4
2017-08-07T04:22:18.230Z,8
2017-08-07T04:22:58.893Z,8
2017-08-07T04:23:39.476Z,4
2017-08-07T04:24:20.049Z,8
2017-08-07T04:25:00.634Z,8
2017-08-07T04:25:41.219Z,4
2017-08-07T04:26:21.791Z,4
2017-08-07T04:27:02.373Z,4
2017-08-07T04:27:42.957Z,4
2017-08-07T04:28:23.539Z,4
2017-08-07T04:29:04.126Z,4
2017-08-07T04:29:44.696Z,8
2017-08-07T04:30:25.280Z,8
2017-08-07T04:31:05.856Z,4
2017-08-07T04:31:46.444Z,8
2017-08-07T04:32:27.264Z,4
2017-08-07T04:33:07.912Z,8
2017-08-07T04:33:48.717Z,8
2017-08-07T04:34:29.312Z,8
2017-08-07T04:35:10.077Z,8
2017-08-07T04:35:50.945Z,8
2017-08-07T04:36:31.726Z,8
2017-08-07T04:37:12.324Z,8
2017-08-07T04:37:52.909Z,8
2017-08-07T04:38:33.493Z,76
2017-08-07T04:39:14.069Z,76
2017-08-07T04:39:54.646Z,80
2017-08-07T04:40:35.231Z,80
2017-08-07T04:41:15.813Z,68
2017-08-07T04:41:56.395Z,80
2017-08-07T04:42:36.988Z,80
2017-08-07T04:43:17.568Z,84
2017-08-07T04:43:58.148Z,88
2017-08-07T04:44:38.736Z,92
2017-08-07T04:45:19.318Z,104
2017-08-07T04:45:59.896Z,100
2017-08-07T04:46:40.478Z,100
2017-08-07T04:47:21.066Z,116
2017-08-07T04:48:01.647Z,116
2017-08-07T04:48:42.231Z,128
2017-08-07T04:49:22.806Z,120
2017-08-07T04:50:03.388Z,124
2017-08-07T04:50:43.975Z,120
2017-08-07T04:51:24.542Z,132
2017-08-07T04:52:05.119Z,136
2017-08-07T04:52:45.735Z,136
2017-08-07T04:53:26.323Z,136
2017-08-07T04:54:06.914Z,144
2017-08-07T04:54:47.501Z,156
2017-08-07T04:55:28.083Z,156
2017-08-07T04:56:08.670Z,168
2017-08-07T04:56:49.255Z,168
2017-08-07T04:57:29.832Z,176
2017-08-07T04:58:10.419Z,188
2017-08-07T04:58:51.045Z,180
2017-08-07T04:59:31.632Z,200
2017-08-07T05:00:12.210Z,188
2017-08-07T05:00:52.794Z,208
2017-08-07T05:01:33.380Z,212
2017-08-07T05:02:13.971Z,224
2017-08-07T05:02:54.954Z,224
2017-08-07T05:03:35.920Z,232
2017-08-07T05:04:16.498Z,252
2017-08-07T05:04:57.088Z,288
2017-08-07T05:05:37.689Z,288
2017-08-07T05:06:18.261Z,316
2017-08-07T05:06:58.832Z,376
2017-08-07T05:07:39.416Z,444
2017-08-07T05:08:20.164Z,432
2017-08-07T05:09:00.747Z,552
2017-08-07T05:09:41.320Z,24
2017-08-07T05:10:21.906Z,28
2017-08-07T05:11:02.497Z,28
2017-08-07T05:11:43.082Z,32
2017-08-07T05:12:23.648Z,28
2017-08-07T05:13:04.230Z,28
2017-08-07T05:13:44.806Z,28
2017-08-07T05:14:25.394Z,28
2017-08-07T05:15:05.988Z,28
2017-08-07T05:15:46.549Z,28
2017-08-07T05:16:27.121Z,28
2017-08-07T05:17:07.708Z,24
2017-08-07T05:17:48.281Z,28
2017-08-07T05:18:28.869Z,24
2017-08-07T05:19:09.583Z,28
2017-08-07T05:19:50.393Z,24
2017-08-07T05:20:31.047Z,24
2017-08-07T05:21:11.733Z,24
2017-08-07T05:21:52.321Z,28
2017-08-07T05:22:32.906Z,28
2017-08-07T05:23:13.540Z,32
2017-08-07T05:23:54.310Z,28
2017-08-07T05:24:34.963Z,28
2017-08-07T05:25:15.535Z,28
2017-08-07T05:25:56.216Z,36
2017-08-07T05:26:36.861Z,40
2017-08-07T05:27:17.668Z,40
2017-08-07T05:27:58.248Z,44
2017-08-07T05:28:38.978Z,44
2017-08-07T05:29:19.653Z,44
2017-08-07T05:30:00.249Z,56
2017-08-07T05:30:40.834Z,64
2017-08-07T05:31:21.612Z,76
2017-08-07T05:32:02.256Z,96
2017-08-07T05:32:42.901Z,104
2017-08-07T05:33:23.598Z,112
2017-08-07T05:34:04.184Z,112
2017-08-07T05:34:44.770Z,112
2017-08-07T05:35:25.353Z,112
2017-08-07T05:36:05.949Z,112
2017-08-07T05:36:46.705Z,112
2017-08-07T05:37:27.288Z,112
2017-08-07T05:38:07.901Z,112
2017-08-07T05:38:48.480Z,112
2017-08-07T05:39:29.220Z,112
2017-08-07T05:40:09.805Z,112
2017-08-07T05:40:50.588Z,112
2017-08-07T05:41:31.549Z,112
2017-08-07T05:42:12.246Z,112
2017-08-07T05:42:52.835Z,112
2017-08-07T05:43:33.577Z,112
2017-08-07T05:44:14.245Z,112
2017-08-07T05:44:54.831Z,116
2017-08-07T05:45:35.478Z,112
2017-08-07T05:46:16.054Z,112
2017-08-07T05:46:56.631Z,112
2017-08-07T05:47:37.217Z,112
2017-08-07T05:48:17.805Z,112
2017-08-07T05:48:58.392Z,112
2017-08-07T05:49:38.989Z,108
2017-08-07T05:50:19.576Z,112
2017-08-07T05:51:00.160Z,112
2017-08-07T05:51:40.745Z,112
2017-08-07T05:52:21.328Z,116
2017-08-07T05:53:01.909Z,124
2017-08-07T05:53:42.497Z,124
2017-08-07T05:54:23.073Z,120
2017-08-07T05:55:03.660Z,108
2017-08-07T05:55:44.240Z,112
2017-08-07T05:56:24.822Z,104
2017-08-07T05:57:05.402Z,104
2017-08-07T05:57:45.988Z,112
2017-08-07T05:58:26.572Z,108
2017-08-07T05:59:07.158Z,96
2017-08-07T05:59:47.750Z,96
2017-08-07T06:00:28.335Z,116
2017-08-07T06:01:08.920Z,100
2017-08-07T06:01:49.759Z,116
2017-08-07T06:02:30.418Z,112
2017-08-07T06:03:10.994Z,116
2017-08-07T06:03:51.583Z,100
2017-08-07T06:04:32.167Z,100
2017-08-07T06:05:12.751Z,104
2017-08-07T06:05:53.330Z,104
2017-08-07T06:06:33.918Z,108
2017-08-07T06:07:14.545Z,112
2017-08-07T06:07:55.193Z,112
2017-08-07T06:08:35.775Z,112
2017-08-07T06:09:16.356Z,108
2017-08-07T06:09:56.949Z,96
2017-08-07T06:10:37.538Z,100
2017-08-07T06:11:18.124Z,112
2017-08-07T06:11:58.716Z,104
2017-08-07T06:12:39.292Z,112
2017-08-07T06:13:19.874Z,108
2017-08-07T06:14:00.462Z,112
2017-08-07T06:14:41.039Z,120
2017-08-07T06:15:21.620Z,104
2017-08-07T06:16:02.199Z,112
2017-08-07T06:16:42.823Z,96
2017-08-07T06:17:23.405Z,96
2017-08-07T06:18:03.985Z,108
2017-08-07T06:18:44.568Z,104
2017-08-07T06:19:25.156Z,108
2017-08-07T06:20:05.743Z,104
2017-08-07T06:20:46.326Z,100
2017-08-07T06:21:26.978Z,104
2017-08-07T06:22:07.623Z,112
2017-08-07T06:22:48.387Z,104
2017-08-07T06:23:28.979Z,108
2017-08-07T06:24:09.569Z,116
2017-08-07T06:24:50.141Z,108
2017-08-07T06:25:30.728Z,120
2017-08-07T06:26:11.314Z,124
2017-08-07T06:26:51.898Z,120
2017-08-07T06:27:32.484Z,124
2017-08-07T06:28:13.062Z,124
2017-08-07T06:28:53.646Z,120
2017-08-07T06:29:34.233Z,116
2017-08-07T06:30:14.818Z,128
2017-08-07T06:30:55.440Z,124
2017-08-07T06:31:36.036Z,128
2017-08-07T06:32:16.618Z,124
2017-08-07T06:32:57.193Z,124
2017-08-07T06:33:37.792Z,124
2017-08-07T06:34:18.366Z,120
2017-08-07T06:34:58.956Z,120
2017-08-07T06:35:39.545Z,120
2017-08-07T06:36:20.120Z,124
2017-08-07T06:37:00.723Z,124
2017-08-07T06:37:41.310Z,116
2017-08-07T06:38:21.893Z,128
2017-08-07T06:39:02.666Z,132
2017-08-07T06:39:43.448Z,108
2017-08-07T06:40:23.998Z,112
2017-08-07T06:41:04.576Z,116
2017-08-07T06:41:45.152Z,120
2017-08-07T06:42:25.739Z,120
2017-08-07T06:43:06.316Z,128
2017-08-07T06:43:46.897Z,124
2017-08-07T06:44:27.483Z,128
2017-08-07T06:45:08.068Z,124
2017-08-07T06:45:48.652Z,136
2017-08-07T06:46:29.225Z,132
2017-08-07T06:47:09.807Z,128
2017-08-07T06:47:50.394Z,132
2017-08-07T06:48:30.980Z,108
2017-08-07T06:49:11.564Z,108
2017-08-07T06:49:52.154Z,128
2017-08-07T06:50:32.736Z,128
2017-08-07T06:51:13.317Z,140
2017-08-07T06:51:53.910Z,128
2017-08-07T06:52:34.492Z,132
2017-08-07T06:53:15.080Z,128
2017-08-07T06:53:55.674Z,124
2017-08-07T06:54:36.277Z,128
2017-08-07T06:57:09.534Z,124
2017-08-07T06:57:50.119Z,128
2017-08-07T06:58:30.701Z,136
2017-08-07T06:59:11.284Z,132
2017-08-07T06:59:51.876Z,128
2017-08-07T07:00:32.461Z,132
2017-08-07T07:01:13.049Z,132
2017-08-07T07:01:53.723Z,132
2017-08-07T07:02:34.304Z,132
2017-08-07T07:03:14.892Z,132
2017-08-07T07:03:55.470Z,136
2017-08-07T07:04:36.055Z,132
2017-08-07T07:05:16.645Z,136
2017-08-07T07:05:57.228Z,136
2017-08-07T07:06:37.819Z,132
2017-08-07T07:07:18.406Z,140
2017-08-07T07:07:59.002Z,136
2017-08-07T07:08:39.578Z,136
2017-08-07T07:09:20.157Z,136
2017-08-07T07:10:00.748Z,136
2017-08-07T07:10:41.334Z,128
2017-08-07T07:11:21.910Z,136
2017-08-07T07:12:02.481Z,136
2017-08-07T07:12:43.071Z,136
2017-08-07T07:13:23.650Z,136
2017-08-07T07:14:04.248Z,136
2017-08-07T07:14:44.812Z,140
2017-08-07T07:15:25.378Z,92
2017-08-07T07:16:05.967Z,132
2017-08-07T07:16:46.788Z,132
2017-08-07T07:17:27.366Z,132
2017-08-07T07:18:07.948Z,132
2017-08-07T07:18:48.539Z,132
2017-08-07T07:19:29.122Z,136
2017-08-07T07:20:09.705Z,132
2017-08-07T07:20:50.297Z,136
2017-08-07T07:21:30.882Z,136
2017-08-07T07:22:11.465Z,144
2017-08-07T07:22:52.049Z,140
2017-08-07T07:23:32.636Z,136
2017-08-07T07:24:13.226Z,136
2017-08-07T07:24:53.814Z,132
2017-08-07T07:25:34.399Z,112
2017-08-07T07:26:14.998Z,104
2017-08-07T07:26:55.582Z,124
2017-08-07T07:27:36.165Z,124
2017-08-07T07:28:16.745Z,128
2017-08-07T07:28:57.332Z,128
2017-08-07T07:29:37.914Z,128
2017-08-07T07:30:18.502Z,124
2017-08-07T07:30:59.084Z,128
2017-08-07T07:31:39.663Z,124
2017-08-07T07:32:20.251Z,124
2017-08-07T07:33:00.843Z,124
2017-08-07T07:33:41.429Z,124
2017-08-07T07:34:22.008Z,128
2017-08-07T07:35:02.583Z,128
2017-08-07T07:35:43.180Z,128
2017-08-07T07:36:23.773Z,128
2017-08-07T07:37:04.358Z,128
2017-08-07T07:37:44.943Z,124
2017-08-07T07:38:25.533Z,124
2017-08-07T07:39:06.108Z,120
2017-08-07T07:39:46.684Z,120
2017-08-07T07:40:27.269Z,124
2017-08-07T07:41:07.863Z,120
2017-08-07T07:41:48.450Z,124
2017-08-07T07:42:29.028Z,124
2017-08-07T07:43:09.611Z,120
2017-08-07T07:43:50.194Z,120
2017-08-07T07:44:30.775Z,120
2017-08-07T07:45:11.361Z,124
2017-08-07T07:45:51.947Z,120
2017-08-07T07:46:32.532Z,120
2017-08-07T07:47:13.155Z,120
2017-08-07T07:47:53.749Z,120
2017-08-07T07:48:34.330Z,116
2017-08-07T07:49:14.901Z,120
2017-08-07T07:49:55.485Z,120
2017-08-07T07:50:36.068Z,120
2017-08-07T07:51:16.655Z,116
2017-08-07T07:51:57.241Z,112
2017-08-07T07:52:37.837Z,116
2017-08-07T07:53:18.411Z,112
2017-08-07T07:53:59.000Z,116
2017-08-07T07:54:39.597Z,116
2017-08-07T07:55:20.160Z,112
2017-08-07T07:56:00.747Z,112
2017-08-07T07:56:41.320Z,116
2017-08-07T07:57:21.909Z,112
2017-08-07T07:58:02.496Z,112
2017-08-07T07:58:43.085Z,116
2017-08-07T07:59:23.660Z,112
2017-08-07T08:00:04.319Z,108
2017-08-07T08:00:44.910Z,112
2017-08-07T08:01:25.495Z,112
2017-08-07T08:02:06.071Z,108
2017-08-07T08:02:46.657Z,112
2017-08-07T08:03:27.249Z,112
2017-08-07T08:04:07.836Z,112
2017-08-07T08:04:48.407Z,108
2017-08-07T08:05:29.001Z,112
2017-08-07T08:06:09.723Z,108
2017-08-07T08:06:50.408Z,108
2017-08-07T08:07:30.985Z,104
2017-08-07T08:08:11.607Z,108
2017-08-07T08:08:52.180Z,108
2017-08-07T08:09:32.772Z,100
2017-08-07T08:10:13.342Z,100
2017-08-07T08:10:53.935Z,104
2017-08-07T08:11:34.522Z,104
2017-08-07T08:12:15.105Z,104
2017-08-07T08:12:55.683Z,104
2017-08-07T08:13:36.260Z,108
2017-08-07T08:14:16.835Z,104
2017-08-07T08:14:57.429Z,104
2017-08-07T08:15:37.986Z,104
2017-08-07T08:16:18.573Z,100
2017-08-07T08:16:59.151Z,100
2017-08-07T08:17:39.721Z,104
2017-08-07T08:18:20.297Z,100
2017-08-07T08:19:00.884Z,100
2017-08-07T08:19:41.457Z,100
2017-08-07T08:20:22.029Z,100
2017-08-07T08:21:02.607Z,108
2017-08-07T08:21:43.195Z,104
2017-08-07T08:22:23.771Z,100
2017-08-07T08:23:04.373Z,104
2017-08-07T08:23:44.965Z,104
2017-08-07T08:24:25.544Z,100
2017-08-07T08:25:06.135Z,100
2017-08-07T08:25:46.729Z,104
2017-08-07T08:26:27.317Z,100
2017-08-07T08:27:07.920Z,100
2017-08-07T08:27:48.482Z,100
2017-08-07T08:28:29.061Z,96
2017-08-07T08:29:09.648Z,96
2017-08-07T08:29:50.234Z,96
2017-08-07T08:30:30.819Z,88
2017-08-07T08:31:11.400Z,96
2017-08-07T08:31:51.979Z,96
2017-08-07T08:32:32.572Z,100
2017-08-07T08:33:13.152Z,100
2017-08-07T08:33:53.737Z,100
2017-08-07T08:34:34.330Z,104
2017-08-07T08:35:14.915Z,104
2017-08-07T08:35:55.500Z,104
2017-08-07T08:36:36.098Z,108
2017-08-07T08:37:16.672Z,108
2017-08-07T08:37:57.251Z,100
2017-08-07T08:38:37.838Z,104
2017-08-07T08:39:18.423Z,104
2017-08-07T08:39:59.007Z,108
2017-08-07T08:40:39.589Z,112
2017-08-07T08:41:20.178Z,112
2017-08-07T08:42:00.767Z,108
2017-08-07T08:42:41.453Z,108
2017-08-07T08:43:22.162Z,112
2017-08-07T08:44:02.880Z,104
2017-08-07T08:44:43.473Z,104
2017-08-07T08:45:24.051Z,108
2017-08-07T08:46:04.642Z,108
2017-08-07T08:46:45.224Z,44
2017-08-07T08:47:25.797Z,104
2017-08-07T08:48:06.387Z,104
2017-08-07T08:48:46.979Z,104
2017-08-07T08:49:27.560Z,100
2017-08-07T08:50:08.144Z,104
2017-08-07T08:50:48.724Z,104
2017-08-07T08:51:29.318Z,104
2017-08-07T08:52:09.900Z,104
2017-08-07T08:52:50.492Z,104
2017-08-07T08:53:31.085Z,104
2017-08-07T08:54:11.664Z,100
2017-08-07T08:54:52.232Z,80
2017-08-07T08:55:32.826Z,100
2017-08-07T08:56:13.400Z,100
2017-08-07T08:56:53.985Z,100
2017-08-07T08:57:34.576Z,72
2017-08-07T08:58:15.157Z,104
2017-08-07T08:58:55.739Z,108
2017-08-07T08:59:36.331Z,92
2017-08-07T09:00:16.937Z,92
2017-08-07T09:00:57.538Z,100
2017-08-07T09:01:38.120Z,96
2017-08-07T09:02:18.698Z,100
2017-08-07T09:02:59.267Z,100
2017-08-07T09:03:39.885Z,100
2017-08-07T09:04:20.483Z,96
2017-08-07T09:05:01.070Z,100
2017-08-07T09:05:41.671Z,100
2017-08-07T09:06:22.280Z,100
2017-08-07T09:07:03.162Z,100
2017-08-07T09:07:43.745Z,100
2017-08-07T09:08:24.464Z,100
2017-08-07T09:09:05.291Z,104
2017-08-07T09:09:45.972Z,100
2017-08-07T09:10:26.564Z,104
2017-08-07T09:11:07.142Z,104
2017-08-07T09:11:47.733Z,100
2017-08-07T09:12:28.317Z,104
2017-08-07T09:13:08.901Z,104
2017-08-07T09:13:49.580Z,44
2017-08-07T09:14:30.243Z,100
2017-08-07T09:15:10.853Z,100
2017-08-07T09:15:51.547Z,100
2017-08-07T09:16:32.252Z,96
2017-08-07T09:17:12.841Z,96
2017-08-07T09:17:53.425Z,96
2017-08-07T09:18:34.018Z,96
2017-08-07T09:19:14.747Z,92
2017-08-07T09:19:55.335Z,96
2017-08-07T09:20:35.925Z,96
2017-08-07T09:21:16.510Z,96
2017-08-07T09:21:57.096Z,96
2017-08-07T09:22:37.680Z,88
2017-08-07T09:23:18.272Z,96
2017-08-07T09:23:58.861Z,104
2017-08-07T09:24:39.436Z,56
2017-08-07T09:25:20.073Z,84
2017-08-07T09:26:00.912Z,68
2017-08-07T09:26:41.746Z,92
2017-08-07T09:27:22.653Z,96
2017-08-07T09:28:03.383Z,68
2017-08-07T09:28:43.984Z,100
2017-08-07T09:29:24.568Z,100
2017-08-07T09:30:05.156Z,92
2017-08-07T09:30:45.746Z,92
2017-08-07T09:31:26.338Z,72
2017-08-07T09:32:06.924Z,88
2017-08-07T09:32:47.516Z,84
2017-08-07T09:33:28.103Z,84
2017-08-07T09:34:08.691Z,84
2017-08-07T09:34:49.281Z,88
2017-08-07T09:35:29.870Z,84
2017-08-07T09:36:10.553Z,80
2017-08-07T09:36:51.260Z,84
2017-08-07T09:37:31.982Z,80
2017-08-07T09:38:12.602Z,80
2017-08-07T09:38:53.189Z,80
2017-08-07T09:39:33.764Z,80
2017-08-07T09:40:14.357Z,80
2017-08-07T09:40:54.951Z,84
2017-08-07T09:41:35.541Z,84
2017-08-07T09:42:16.131Z,84
2017-08-07T09:42:56.719Z,84
2017-08-07T09:43:37.451Z,80
2017-08-07T09:44:18.116Z,72
2017-08-07T09:44:58.705Z,72
2017-08-07T09:45:39.292Z,76
2017-08-07T09:46:19.876Z,76
2017-08-07T09:47:00.464Z,72
2017-08-07T09:47:41.044Z,72
2017-08-07T09:48:21.640Z,68
2017-08-07T09:49:02.219Z,64
2017-08-07T09:49:42.802Z,64
2017-08-07T09:50:23.401Z,60
2017-08-07T09:51:03.988Z,60
2017-08-07T09:51:44.568Z,60
2017-08-07T09:52:25.163Z,60
2017-08-07T09:53:05.731Z,60
2017-08-07T09:53:46.321Z,60
2017-08-07T09:54:26.918Z,60
2017-08-07T09:55:14.443Z,60
2017-08-07T09:55:55.029Z,60
2017-08-07T09:56:35.622Z,56
2017-08-07T09:57:16.216Z,56
2017-08-07T09:57:56.810Z,56
2017-08-07T09:58:37.485Z,60
2017-08-07T09:59:18.094Z,60
2017-08-07T09:59:58.682Z,60
2017-08-07T10:00:39.269Z,56
2017-08-07T10:01:19.867Z,56
2017-08-07T10:02:00.472Z,56
2017-08-07T10:02:41.060Z,56
2017-08-07T10:03:21.647Z,52
2017-08-07T10:04:02.224Z,52
2017-08-07T10:04:43.561Z,52
2017-08-07T10:05:24.516Z,56
2017-08-07T10:06:05.337Z,56
2017-08-07T10:06:46.073Z,52
2017-08-07T10:07:26.932Z,52
2017-08-07T10:08:07.644Z,56
2017-08-07T10:08:48.229Z,40
2017-08-07T10:09:28.809Z,60
2017-08-07T10:10:09.401Z,60
2017-08-07T10:10:49.998Z,60
2017-08-07T10:11:30.569Z,36
2017-08-07T10:12:11.151Z,32
2017-08-07T10:12:51.742Z,28
2017-08-07T10:13:32.332Z,32
2017-08-07T10:14:12.914Z,36
2017-08-07T10:14:53.523Z,32
2017-08-07T10:15:34.111Z,28
2017-08-07T10:16:14.702Z,24
2017-08-07T10:16:55.287Z,40
2017-08-07T10:17:35.875Z,48
2017-08-07T10:18:16.465Z,44
2017-08-07T10:18:57.076Z,44
2017-08-07T10:19:37.812Z,40
2017-08-07T10:20:18.515Z,44
2017-08-07T10:20:59.324Z,40
2017-08-07T10:21:39.960Z,40
2017-08-07T10:22:20.547Z,40
2017-08-07T10:23:01.136Z,40
2017-08-07T10:23:41.720Z,40
2017-08-07T10:24:22.436Z,40
2017-08-07T10:25:03.022Z,40
2017-08-07T10:25:43.609Z,40
2017-08-07T10:26:24.214Z,40
2017-08-07T10:27:04.803Z,40
2017-08-07T10:27:45.390Z,40
2017-08-07T10:28:25.977Z,40
2017-08-07T10:29:06.564Z,40
2017-08-07T10:29:47.159Z,40
2017-08-07T10:30:27.748Z,40
2017-08-07T10:31:08.340Z,40
2017-08-07T10:31:48.921Z,40
2017-08-07T10:32:29.517Z,24
2017-08-07T10:33:10.110Z,40
2017-08-07T10:33:50.696Z,40
2017-08-07T10:34:31.285Z,44
2017-08-07T10:35:11.954Z,44
2017-08-07T10:35:52.534Z,48
2017-08-07T10:36:33.130Z,320
2017-08-07T10:37:13.725Z,324
2017-08-07T10:42:48.308Z,312
2017-08-07T10:43:28.900Z,308
2017-08-07T10:44:09.484Z,300
2017-08-07T10:44:50.071Z,296
2017-08-07T10:45:30.658Z,304
2017-08-07T10:46:11.242Z,296
2017-08-07T10:46:51.892Z,292
2017-08-07T10:47:32.698Z,288
2017-08-07T10:48:13.418Z,276
2017-08-07T10:48:54.283Z,272
2017-08-07T10:49:35.365Z,272
2017-08-07T10:50:16.185Z,272
2017-08-07T10:50:57.179Z,268
2017-08-07T10:51:38.005Z,260
2017-08-07T10:52:18.864Z,260
2017-08-07T10:52:59.716Z,260
2017-08-07T10:53:40.685Z,252
2017-08-07T10:54:21.791Z,256
2017-08-07T10:55:02.683Z,248
2017-08-07T10:55:43.605Z,244
2017-08-07T10:56:24.504Z,236
2017-08-07T10:57:05.422Z,240
2017-08-07T10:57:46.624Z,244
2017-08-07T10:58:27.204Z,248
2017-08-07T10:59:07.889Z,248
2017-08-07T10:59:48.567Z,244
2017-08-07T11:00:29.355Z,248
2017-08-07T11:01:10.107Z,268
2017-08-07T11:01:51.151Z,248
2017-08-07T11:02:32.186Z,240
2017-08-07T11:03:13.143Z,240
2017-08-07T11:03:53.909Z,236
2017-08-07T11:04:34.767Z,240
2017-08-07T11:05:15.648Z,232
2017-08-07T11:05:56.777Z,224
2017-08-07T11:06:37.549Z,228
2017-08-07T11:07:18.249Z,232
2017-08-07T11:07:58.986Z,240
2017-08-07T11:08:39.909Z,224
2017-08-07T11:09:21.182Z,236
2017-08-07T11:10:01.943Z,228
2017-08-07T11:10:42.766Z,232
2017-08-07T11:11:23.636Z,232
2017-08-07T11:12:04.438Z,236
2017-08-07T11:12:45.113Z,240
2017-08-07T11:13:25.951Z,244
2017-08-07T11:14:06.752Z,240
2017-08-07T11:14:47.585Z,236
2017-08-07T11:15:28.224Z,232
2017-08-07T11:16:09.200Z,232
2017-08-07T11:16:50.401Z,232
2017-08-07T11:17:31.260Z,232
2017-08-07T11:18:12.235Z,240
2017-08-07T11:18:53.290Z,236
2017-08-07T11:19:34.198Z,228
2017-08-07T11:20:15.097Z,220
2017-08-07T11:20:56.232Z,220
2017-08-07T11:21:37.327Z,216
2017-08-07T11:22:18.186Z,216
2017-08-07T11:22:59.475Z,212
2017-08-07T11:23:40.529Z,216
2017-08-07T11:24:21.587Z,224
2017-08-07T11:25:02.612Z,236
2017-08-07T11:25:43.652Z,240
2017-08-07T11:26:24.711Z,232
2017-08-07T11:27:05.940Z,240
2017-08-07T11:27:46.898Z,244
2017-08-07T11:28:28.030Z,252
2017-08-07T11:29:09.258Z,236
2017-08-07T11:29:50.956Z,232
2017-08-07T11:30:31.860Z,220
2017-08-07T11:31:12.846Z,208
2017-08-07T11:31:54.038Z,204
2017-08-07T11:32:35.918Z,200
2017-08-07T11:33:17.029Z,248
2017-08-07T11:33:58.069Z,244
2017-08-07T11:34:39.045Z,224
2017-08-07T11:35:20.010Z,216
2017-08-07T11:36:01.073Z,156
2017-08-07T11:36:42.240Z,176
2017-08-07T11:37:23.278Z,208
2017-08-07T11:38:04.349Z,204
2017-08-07T11:38:45.380Z,204
2017-08-07T11:39:26.283Z,208
2017-08-07T11:40:08.137Z,208
2017-08-07T11:40:49.334Z,204
2017-08-07T11:41:30.238Z,204
2017-08-07T11:42:11.346Z,180
2017-08-07T11:42:52.347Z,188
2017-08-07T11:43:33.425Z,188
2017-08-07T11:44:15.027Z,196
2017-08-07T11:44:56.311Z,196
2017-08-07T11:45:37.514Z,196
2017-08-07T11:46:18.747Z,196
2017-08-07T11:46:59.573Z,192
2017-08-07T11:47:40.577Z,200
2017-08-07T11:48:21.552Z,168
2017-08-07T11:49:02.957Z,168
2017-08-07T11:49:44.661Z,164
2017-08-07T11:50:25.626Z,168
2017-08-07T11:51:06.569Z,340
2017-08-07T11:51:47.578Z,340
2017-08-07T11:52:28.375Z,412
2017-08-07T11:53:09.031Z,416
2017-08-07T11:53:49.710Z,408
2017-08-07T11:54:31.026Z,428
2017-08-07T11:55:12.008Z,444
2017-08-07T11:55:53.190Z,460
2017-08-07T11:56:34.454Z,460
2017-08-07T11:57:15.463Z,428
2017-08-07T11:57:56.616Z,396
2017-08-07T11:58:37.288Z,392
2017-08-07T11:59:18.270Z,388
2017-08-07T11:59:59.478Z,392
2017-08-07T12:00:40.516Z,388
2017-08-07T12:01:21.576Z,388
2017-08-07T12:02:02.376Z,392
2017-08-07T12:02:43.663Z,400
2017-08-07T12:03:24.799Z,416
2017-08-07T12:04:06.100Z,428
2017-08-07T12:04:46.967Z,404
2017-08-07T12:05:28.058Z,388
2017-08-07T12:06:09.431Z,388
2017-08-07T12:06:50.322Z,396
2017-08-07T12:07:31.420Z,420
2017-08-07T12:08:12.637Z,464
2017-08-07T12:08:53.862Z,512
2017-08-07T12:09:35.206Z,532
2017-08-07T12:10:16.165Z,500
2017-08-07T12:10:57.147Z,496
2017-08-07T12:11:40.294Z,424
2017-08-07T12:12:21.681Z,400
2017-08-07T12:13:03.151Z,420
2017-08-07T12:13:45.417Z,412
2017-08-07T12:14:26.581Z,416
2017-08-07T12:15:07.487Z,428
2017-08-07T12:15:48.318Z,424
2017-08-07T12:16:30.002Z,392
2017-08-07T12:17:11.276Z,384
2017-08-07T12:17:52.664Z,380
2017-08-07T12:18:33.829Z,384
2017-08-07T12:19:14.573Z,388
2017-08-07T12:19:55.875Z,384
2017-08-07T12:20:36.889Z,380
2017-08-07T12:21:18.267Z,380
2017-08-07T12:21:59.021Z,384
2017-08-07T12:22:39.959Z,392
2017-08-07T12:23:21.010Z,408
2017-08-07T12:24:02.290Z,440
2017-08-07T12:24:43.460Z,488
2017-08-07T12:25:25.503Z,508
2017-08-07T12:26:06.413Z,508
2017-08-07T12:26:47.488Z,496
2017-08-07T12:27:28.507Z,436
2017-08-07T12:28:09.802Z,388
2017-08-07T12:28:51.063Z,376
2017-08-07T12:29:32.293Z,368
2017-08-07T12:30:13.160Z,320
2017-08-07T12:30:54.083Z,352
2017-08-07T12:31:35.010Z,368
2017-08-07T12:32:16.183Z,376
2017-08-07T12:32:57.181Z,376
2017-08-07T12:33:38.149Z,424
2017-08-07T12:34:19.146Z,352
2017-08-07T12:35:01.945Z,308
2017-08-07T12:35:42.867Z,368
2017-08-07T12:36:24.398Z,364
2017-08-07T12:37:05.361Z,360
2017-08-07T12:37:46.492Z,352
2017-08-07T12:38:27.282Z,352
2017-08-07T12:39:09.096Z,348
2017-08-07T12:39:50.906Z,304
2017-08-07T12:40:31.923Z,296
2017-08-07T12:41:13.057Z,368
2017-08-07T12:41:53.944Z,364
2017-08-07T12:42:34.752Z,420
2017-08-07T12:43:15.930Z,484
2017-08-07T12:43:56.920Z,532
2017-08-07T12:44:37.866Z,568
2017-08-07T12:45:18.944Z,540
2017-08-07T12:46:00.046Z,348
2017-08-07T12:46:41.040Z,328
2017-08-07T12:47:22.114Z,560
2017-08-07T12:48:03.167Z,608
2017-08-07T12:48:44.081Z,648
2017-08-07T12:49:24.911Z,604
2017-08-07T12:50:05.721Z,520
2017-08-07T12:50:46.774Z,456
2017-08-07T12:51:27.631Z,404
2017-08-07T12:52:08.656Z,376
2017-08-07T12:52:50.270Z,408
2017-08-07T12:53:31.575Z,388
2017-08-07T12:54:12.896Z,348
2017-08-07T12:54:53.955Z,336
2017-08-07T12:55:35.247Z,348
2017-08-07T12:56:17.487Z,288
2017-08-07T12:57:00.514Z,304
2017-08-07T12:57:42.124Z,312
2017-08-07T12:58:23.485Z,316
2017-08-07T12:59:04.490Z,324
2017-08-07T12:59:45.782Z,372
2017-08-07T13:00:27.722Z,368
2017-08-07T13:01:09.199Z,392
2017-08-07T13:01:51.837Z,412
2017-08-07T13:02:34.301Z,404
2017-08-07T13:03:15.619Z,404
2017-08-07T13:03:57.176Z,424
2017-08-07T13:04:38.627Z,448
2017-08-07T13:05:20.093Z,496
2017-08-07T13:06:02.731Z,572
2017-08-07T13:06:45.062Z,632
2017-08-07T13:07:26.522Z,588
2017-08-07T13:08:07.691Z,540
2017-08-07T13:08:49.213Z,496
2017-08-07T13:09:30.285Z,488
2017-08-07T13:10:12.246Z,428
2017-08-07T13:10:54.141Z,464
2017-08-07T13:11:36.255Z,528
2017-08-07T13:12:18.135Z,584
2017-08-07T13:12:59.757Z,572
2017-08-07T13:13:40.711Z,596
2017-08-07T13:14:21.413Z,584
2017-08-07T13:15:02.242Z,652
2017-08-07T13:15:43.344Z,600
2017-08-07T13:16:24.535Z,500
2017-08-07T13:17:05.808Z,492
2017-08-07T13:17:47.488Z,500
2017-08-07T13:18:28.547Z,508
2017-08-07T13:19:09.544Z,488
2017-08-07T13:19:50.615Z,500
2017-08-07T13:20:31.799Z,468
2017-08-07T13:21:12.867Z,428
2017-08-07T13:21:54.936Z,404
2017-08-07T13:22:36.224Z,400
2017-08-07T13:23:17.337Z,348
2017-08-07T13:23:58.332Z,364
2017-08-07T13:24:39.262Z,368
2017-08-07T13:25:19.955Z,328
2017-08-07T13:26:01.005Z,312
2017-08-07T13:26:41.884Z,316
2017-08-07T13:27:22.890Z,340
2017-08-07T13:28:03.870Z,320
2017-08-07T13:28:45.087Z,372
2017-08-07T13:29:26.211Z,360
2017-08-07T13:30:07.158Z,352
2017-08-07T13:30:47.905Z,336
2017-08-07T13:31:28.991Z,356
2017-08-07T13:32:09.942Z,300
2017-08-07T13:32:50.787Z,360
2017-08-07T13:33:31.780Z,364
2017-08-07T13:34:12.701Z,368
2017-08-07T13:34:53.524Z,380
2017-08-07T13:35:34.618Z,384
2017-08-07T13:36:15.347Z,384
2017-08-07T13:36:56.672Z,376
2017-08-07T13:37:37.307Z,364
2017-08-07T13:38:18.557Z,356
2017-08-07T13:38:59.427Z,344
2017-08-07T13:39:40.557Z,332
2017-08-07T13:40:21.694Z,328
2017-08-07T13:41:02.936Z,324
2017-08-07T13:41:44.116Z,324
2017-08-07T13:42:25.023Z,324